Time;durP1;ratioP1;P1;durP2;ratioP2;P2;SDS_P1;SDS_P2;PMS_P1;PMS_P2;Temp;Humidity;BMP_temperature;BMP_pressure;BME280_temperature;BME280_humidity;BME280_pressure;Samples;Min_cycle;Max_cycle;Signal;HPM_P1;HPM_P2
2021/03/02 03:46:08;;;;;;;18.95;10.60;;;0.20;99.90;;;;;;5587326;23;89089;-81
2021/03/02 03:48:34;;;;;;;19.08;11.40;;;0.10;99.90;;;;;;4968877;28;88033;-82
2021/03/02 03:51:00;;;;;;;19.75;10.65;;;0.10;99.90;;;;;;4969903;28;86923;-82
2021/03/02 03:53:30;;;;;;;20.95;11.25;;;0.10;99.90;;;;;;4974040;28;87028;-83
2021/03/02 03:55:57;;;;;;;20.88;12.38;;;0.10;99.90;;;;;;4969721;28;87491;-83
2021/03/02 03:58:25;;;;;;;19.60;10.68;;;0.10;99.90;;;;;;4952379;28;86991;-83
2021/03/02 04:00:52;;;;;;;17.83;10.75;;;0.10;99.90;;;;;;4958581;28;86612;-82
2021/03/02 04:03:23;;;;;;;19.60;10.63;;;0.10;99.90;;;;;;4968735;28;87497;-82
2021/03/02 04:05:49;;;;;;;;;;;0.10;99.90;;;;;;4968430;28;87678;-81
2021/03/02 04:08:18;;;;;;;22.58;11.38;;;0.10;99.90;;;;;;4952273;28;87235;-83
2021/03/02 04:10:44;;;;;;;17.83;9.55;;;0.00;99.90;;;;;;4949863;28;86950;-83
2021/03/02 04:13:12;;;;;;;17.52;10.02;;;0.00;99.90;;;;;;4967174;28;86987;-84
2021/03/02 04:15:38;;;;;;;22.55;11.52;;;0.00;99.90;;;;;;4968438;28;87704;-83
2021/03/02 04:18:09;;;;;;;18.80;10.95;;;0.00;99.90;;;;;;4968000;28;86986;-82
2021/03/02 04:20:35;;;;;;;20.25;11.10;;;0.00;99.90;;;;;;4968779;28;86941;-83
2021/03/02 04:23:01;;;;;;;18.15;9.65;;;0.00;99.90;;;;;;4968325;28;86001;-82
2021/03/02 04:25:27;;;;;;;21.15;11.77;;;-0.10;99.90;;;;;;4966975;28;88135;-82
2021/03/02 04:27:53;;;;;;;18.63;10.88;;;-0.10;99.90;;;;;;4967769;28;86887;-82
2021/03/02 04:30:19;;;;;;;20.30;11.60;;;-0.20;99.90;;;;;;4964825;28;88011;-81
2021/03/02 04:32:45;;;;;;;19.55;10.63;;;-0.10;99.90;;;;;;4957042;28;86965;-80
2021/03/02 04:35:11;;;;;;;23.52;11.25;;;-0.10;99.90;;;;;;4955669;28;86638;-79
2021/03/02 04:37:37;;;;;;;16.73;10.23;;;-0.10;99.90;;;;;;4964332;28;88610;-78
2021/03/02 04:40:05;;;;;;;16.30;9.82;;;-0.20;99.90;;;;;;4964841;28;87075;-80
2021/03/02 04:42:30;;;;;;;16.70;9.68;;;-0.20;99.90;;;;;;4950020;28;87393;-79
2021/03/02 04:44:56;;;;;;;16.98;10.18;;;-0.20;99.90;;;;;;4966974;28;87020;-80
2021/03/02 04:47:22;;;;;;;19.73;11.18;;;-0.20;99.90;;;;;;4949492;28;87148;-80
2021/03/02 04:49:47;;;;;;;16.58;10.57;;;-0.30;99.90;;;;;;4946472;28;86995;-79
2021/03/02 04:52:13;;;;;;;17.05;10.45;;;-0.40;99.90;;;;;;4947925;28;86730;-80
2021/03/02 04:54:39;;;;;;;19.20;10.93;;;-0.40;99.90;;;;;;4953391;28;88138;-80
2021/03/02 04:57:05;;;;;;;18.05;9.77;;;-0.40;99.90;;;;;;4947420;28;87253;-80
2021/03/02 04:59:30;;;;;;;16.02;10.02;;;-0.40;99.90;;;;;;4956580;28;86924;-80
2021/03/02 05:01:56;;;;;;;17.20;10.10;;;-0.50;99.90;;;;;;4942843;28;86921;-80
2021/03/02 05:04:22;;;;;;;22.35;11.30;;;-0.50;99.90;;;;;;4944041;28;87748;-79
2021/03/02 05:06:47;;;;;;;17.75;9.35;;;-0.50;99.90;;;;;;4961269;28;87125;-79
2021/03/02 05:09:13;;;;;;;17.48;10.75;;;-0.50;99.90;;;;;;4949605;28;86991;-78
2021/03/02 05:11:39;;;;;;;20.85;10.93;;;-0.50;99.90;;;;;;4956621;28;85981;-80
2021/03/02 05:14:04;;;;;;;20.83;11.93;;;-0.60;99.90;;;;;;4967197;28;86826;-79
2021/03/02 05:16:30;;;;;;;20.08;11.25;;;-0.60;99.90;;;;;;4957299;28;86964;-79
2021/03/02 05:18:56;;;;;;;22.25;12.05;;;-0.60;99.90;;;;;;4950412;28;87758;-79
2021/03/02 05:21:21;;;;;;;19.70;11.55;;;-0.60;99.90;;;;;;4930225;28;87243;-81
2021/03/02 05:23:47;;;;;;;21.40;11.07;;;-0.60;99.90;;;;;;4948103;28;87248;-80
2021/03/02 05:26:13;;;;;;;25.17;13.15;;;-0.70;99.90;;;;;;4945379;28;87222;-79
2021/03/02 05:28:38;;;;;;;23.00;12.93;;;-0.70;99.90;;;;;;4955701;28;87043;-79
2021/03/02 05:31:04;;;;;;;23.05;13.35;;;-0.80;99.90;;;;;;4949182;28;86749;-80
2021/03/02 05:33:30;;;;;;;24.17;13.52;;;-0.80;99.90;;;;;;4951466;28;88488;-80
2021/03/02 05:35:56;;;;;;;21.65;12.55;;;-0.80;99.90;;;;;;4948658;28;86992;-80
2021/03/02 05:38:21;;;;;;;23.35;13.05;;;-0.80;99.90;;;;;;4947695;28;86895;-83
2021/03/02 05:40:47;;;;;;;23.10;12.45;;;-0.80;99.90;;;;;;4950159;28;86746;-81
2021/03/02 05:43:13;;;;;;;21.77;11.88;;;-0.80;99.90;;;;;;4945361;28;88254;-79
2021/03/02 05:45:38;;;;;;;20.98;12.07;;;-0.80;99.90;;;;;;4945918;28;88445;-78
2021/03/02 05:48:09;;;;;;;24.52;12.60;;;-0.90;99.90;;;;;;4964476;28;86507;-79
2021/03/02 05:50:35;;;;;;;;;;;-0.90;99.90;;;;;;4964964;28;86858;-80
2021/03/02 05:53:02;;;;;;;21.23;11.32;;;-1.00;99.90;;;;;;4970670;28;86607;-81
2021/03/02 05:55:29;;;;;;;23.90;12.35;;;-1.00;99.90;;;;;;4950922;28;90465;-80
2021/03/02 05:57:56;;;;;;;20.30;11.65;;;-1.00;99.90;;;;;;4967659;28;87055;-80
2021/03/02 06:00:22;;;;;;;24.08;13.05;;;-1.10;99.90;;;;;;4965498;28;86342;-80
2021/03/02 06:02:49;;;;;;;22.38;11.88;;;-1.00;99.90;;;;;;4964365;28;86962;-80
2021/03/02 06:05:15;;;;;;;25.05;12.75;;;-1.00;99.90;;;;;;4964074;28;86870;-80
2021/03/02 06:07:40;;;;;;;24.98;13.57;;;-1.00;99.90;;;;;;4962564;28;87709;-81
2021/03/02 06:10:07;;;;;;;21.70;11.98;;;-1.00;99.90;;;;;;4963809;28;86318;-80
2021/03/02 06:12:55;;;;;;;23.33;12.88;;;-1.00;99.90;;;;;;4968496;28;89235;-81
2021/03/02 06:15:23;;;;;;;25.75;13.63;;;-1.00;99.90;;;;;;4968353;28;86697;-81
2021/03/02 06:18:16;;;;;;;27.52;14.90;;;-1.00;99.90;;;;;;4969328;28;87088;-80
2021/03/02 06:20:42;;;;;;;25.10;14.40;;;-1.00;99.90;;;;;;4965615;28;87062;-83
2021/03/02 06:23:26;;;;;;;33.10;16.20;;;-1.00;99.90;;;;;;4968845;28;87321;-82
2021/03/02 06:25:53;;;;;;;28.08;16.23;;;-0.60;99.90;;;;;;4952760;28;88846;-81
2021/03/02 06:28:39;;;;;;;33.17;16.67;;;0.40;99.90;;;;;;4969946;28;86767;-81
2021/03/02 06:31:05;;;;;;;24.70;14.88;;;1.70;99.90;;;;;;4968215;28;86988;-82
2021/03/02 06:33:31;;;;;;;26.67;15.13;;;3.00;99.90;;;;;;4964735;28;88846;-82
2021/03/02 06:35:57;;;;;;;22.40;13.48;;;4.20;99.90;;;;;;4970725;28;89308;-80
2021/03/02 06:38:34;;;;;;;23.73;14.70;;;5.20;99.90;;;;;;4943881;28;86885;-80
2021/03/02 06:41:02;;;;;;;21.35;12.27;;;6.30;99.90;;;;;;4965605;28;87046;-80
2021/03/02 06:43:38;;;;;;;21.23;12.85;;;7.20;99.90;;;;;;4963513;28;88471;-81
2021/03/02 06:46:09;;;;;;;28.75;13.23;;;8.10;95.00;;;;;;4965631;28;88199;-82
2021/03/02 06:48:56;;;;;;;32.97;14.27;;;8.90;93.00;;;;;;4962913;28;86586;-82
2021/03/02 06:51:27;;;;;;;26.35;13.52;;;9.60;86.00;;;;;;4964367;28;87110;-88
2021/03/02 06:54:17;;;;;;;22.95;13.70;;;10.40;84.40;;;;;;4968502;28;87663;-87
2021/03/02 06:56:44;;;;;;;25.02;13.45;;;11.30;78.70;;;;;;4969305;28;87595;-89
2021/03/02 06:59:17;;;;;;;22.45;13.10;;;12.20;76.30;;;;;;4974204;28;87723;-87
2021/03/02 07:01:45;;;;;;;28.63;15.02;;;12.80;72.00;;;;;;4966120;28;86915;-88
2021/03/02 07:04:11;;;;;;;28.65;15.57;;;13.50;68.60;;;;;;4980043;28;87761;-89
2021/03/02 07:06:37;;;;;;;25.35;15.23;;;14.10;64.20;;;;;;4955082;28;88512;-86
2021/03/02 07:09:05;;;;;;;28.80;18.38;;;14.70;62.00;;;;;;4969272;28;86880;-87
2021/03/02 07:11:32;;;;;;;29.38;18.25;;;15.20;59.40;;;;;;4973806;28;86532;-86
2021/03/02 07:14:06;;;;;;;27.75;17.27;;;15.80;55.10;;;;;;4968447;28;87194;-85
2021/03/02 07:16:43;;;;;;;23.20;14.32;;;16.20;54.30;;;;;;4969308;28;86712;-86
2021/03/02 07:19:13;;;;;;;26.90;17.05;;;16.90;52.60;;;;;;4946286;28;87042;-86
2021/03/02 07:21:39;;;;;;;31.23;18.57;;;17.20;51.40;;;;;;4961350;28;87167;-85
2021/03/02 07:24:08;;;;;;;26.58;17.48;;;18.00;49.40;;;;;;4967181;28;87798;-84
2021/03/02 07:26:37;;;;;;;17.25;12.25;;;18.30;47.70;;;;;;4967713;28;87340;-83
2021/03/02 07:29:03;;;;;;;18.80;12.73;;;18.50;45.60;;;;;;4967875;28;86486;-84
2021/03/02 07:31:52;;;;;;;23.50;14.90;;;17.80;45.50;;;;;;4965686;28;87106;-91
2021/03/02 07:34:18;;;;;;;20.63;14.40;;;16.40;45.20;;;;;;4949481;28;88866;-88
2021/03/02 07:36:44;;;;;;;21.02;14.25;;;14.90;48.90;;;;;;4947366;28;89205;-89
2021/03/02 07:39:17;;;;;;;21.30;14.35;;;13.50;51.40;;;;;;4964980;28;87015;-88
2021/03/02 07:41:54;;;;;;;18.33;12.68;;;12.30;54.00;;;;;;4947104;28;86310;-92
2021/03/02 07:44:20;;;;;;;19.02;12.75;;;11.00;56.90;;;;;;4968198;28;87788;-87
2021/03/02 07:46:52;;;;;;;19.20;11.88;;;10.20;59.80;;;;;;4961594;28;87065;-87
2021/03/02 07:49:28;;;;;;;14.85;9.77;;;9.80;62.00;;;;;;4928837;28;87385;-87
2021/03/02 07:52:05;;;;;;;11.95;9.02;;;10.00;62.00;;;;;;4942899;28;86966;-83
2021/03/02 07:54:33;;;;;;;9.80;7.65;;;10.70;61.30;;;;;;4949013;28;87323;-83
2021/03/02 07:57:18;;;;;;;13.38;7.93;;;11.10;59.30;;;;;;4949230;28;86936;-85
2021/03/02 07:59:45;;;;;;;9.48;7.68;;;11.30;58.90;;;;;;4948185;28;86986;-85
2021/03/02 08:02:19;;;;;;;11.43;7.93;;;11.30;59.00;;;;;;4964305;28;86846;-83
2021/03/02 08:04:46;;;;;;;13.23;8.98;;;11.10;59.70;;;;;;4951221;28;86721;-85
2021/03/02 08:07:20;;;;;;;12.63;8.20;;;11.00;60.80;;;;;;4950552;28;86192;-85
2021/03/02 08:09:49;;;;;;;13.68;9.00;;;11.00;61.00;;;;;;4948102;28;87079;-85
2021/03/02 08:12:36;;;;;;;13.98;9.00;;;10.80;62.10;;;;;;4942685;28;86875;-84
2021/03/02 08:15:21;;;;;;;14.23;9.82;;;10.70;64.60;;;;;;4942123;28;87912;-85
2021/03/02 08:17:47;;;;;;;15.15;10.48;;;11.00;65.00;;;;;;4936117;28;87764;-86
2021/03/02 08:20:13;;;;;;;15.88;10.68;;;11.20;64.90;;;;;;4937499;28;86970;-91
2021/03/02 08:22:43;;;;;;;10.63;8.35;;;11.70;64.10;;;;;;4935309;28;87249;-91
2021/03/02 08:25:27;;;;;;;14.90;10.65;;;12.30;62.80;;;;;;4918561;28;91778;-88
2021/03/02 08:27:56;;;;;;;11.77;9.40;;;13.00;61.00;;;;;;4935216;28;87489;-87
2021/03/02 08:30:22;;;;;;;10.57;8.70;;;14.10;58.80;;;;;;4937363;28;87118;-88
2021/03/02 08:32:48;;;;;;;12.07;9.32;;;15.50;56.80;;;;;;4940075;28;86305;-91
2021/03/02 08:35:19;;;;;;;13.27;8.82;;;17.40;51.40;;;;;;4939535;28;90007;-88
2021/03/02 08:37:57;;;;;;;12.13;9.23;;;19.40;47.40;;;;;;4934065;28;88007;-87
2021/03/02 08:40:24;;;;;;;10.63;8.93;;;21.40;44.00;;;;;;4934217;28;88256;-87
2021/03/02 08:43:04;;;;;;;10.25;8.15;;;23.00;40.40;;;;;;4932820;28;87118;-88
2021/03/02 08:45:35;;;;;;;10.35;8.93;;;24.50;36.60;;;;;;4935480;28;87581;-87
2021/03/02 08:48:14;;;;;;;11.68;9.68;;;25.60;36.30;;;;;;4953953;28;87370;-89
2021/03/02 08:50:39;;;;;;;11.65;8.98;;;26.80;33.60;;;;;;4956600;28;87409;-87
2021/03/02 08:53:24;;;;;;;10.93;8.88;;;27.50;33.60;;;;;;4955718;28;87286;-84
2021/03/02 08:55:49;;;;;;;12.15;9.25;;;28.50;30.40;;;;;;4957790;28;87081;-85
2021/03/02 08:58:15;;;;;;;9.27;8.38;;;29.20;31.00;;;;;;4971190;28;86697;-85
2021/03/02 09:00:41;;;;;;;11.45;8.65;;;29.60;30.00;;;;;;4972067;28;86922;-86
2021/03/02 09:03:07;;;;;;;9.68;8.68;;;30.20;30.00;;;;;;4965793;28;86891;-86
2021/03/02 09:05:32;;;;;;;10.10;9.20;;;30.80;29.30;;;;;;4967115;28;88710;-87
2021/03/02 09:08:07;;;;;;;10.20;9.20;;;31.30;29.00;;;;;;4964773;28;87321;-87
2021/03/02 09:10:34;;;;;;;10.80;9.43;;;31.60;27.80;;;;;;4965653;28;87041;-88
2021/03/02 09:13:05;;;;;;;9.85;8.82;;;32.10;28.60;;;;;;4966211;28;87045;-86
2021/03/02 09:15:44;;;;;;;10.77;9.48;;;32.40;27.70;;;;;;4974202;28;87278;-84
2021/03/02 09:18:15;;;;;;;10.43;9.43;;;32.90;26.70;;;;;;4966597;28;87725;-85
2021/03/02 09:20:49;;;;;;;11.32;10.25;;;33.30;26.70;;;;;;4968778;28;87056;-84
2021/03/02 09:23:15;;;;;;;11.02;10.02;;;33.50;26.20;;;;;;4945416;28;88027;-86
2021/03/02 09:25:42;;;;;;;11.95;10.75;;;33.90;26.90;;;;;;4970679;28;87000;-85
2021/03/02 09:28:19;;;;;;;11.45;10.30;;;34.30;26.70;;;;;;4975360;28;87370;-84
2021/03/02 09:30:46;;;;;;;12.23;11.02;;;34.50;25.90;;;;;;4974434;28;87862;-86
2021/03/02 09:33:16;;;;;;;12.85;11.65;;;34.80;26.30;;;;;;4971853;28;86492;-87
2021/03/02 09:35:42;;;;;;;11.95;10.75;;;34.90;25.90;;;;;;4961117;28;88111;-87
2021/03/02 09:38:08;;;;;;;11.95;10.85;;;35.10;26.20;;;;;;4962855;28;88262;-85
2021/03/02 09:40:41;;;;;;;12.57;11.38;;;35.30;25.80;;;;;;4967420;28;87351;-86
2021/03/02 09:43:07;;;;;;;12.85;11.65;;;35.40;25.50;;;;;;4974931;28;86878;-86
2021/03/02 09:45:33;;;;;;;13.55;12.23;;;35.70;25.60;;;;;;4974899;28;88677;-85
2021/03/02 09:48:07;;;;;;;12.27;11.18;;;35.60;25.70;;;;;;4975915;28;87006;-85
2021/03/02 09:50:42;;;;;;;12.63;11.38;;;35.80;25.00;;;;;;4975343;28;87068;-86
2021/03/02 09:53:17;;;;;;;12.45;11.45;;;36.00;24.90;;;;;;4975944;28;86394;-85
2021/03/02 09:55:47;;;;;;;12.35;11.02;;;36.40;24.90;;;;;;4973156;28;90060;-85
2021/03/02 09:58:17;;;;;;;12.73;11.57;;;36.40;25.10;;;;;;4972231;28;89394;-86
2021/03/02 10:00:48;;;;;;;13.98;12.68;;;36.30;25.00;;;;;;4973640;28;87249;-85
2021/03/02 10:03:33;;;;;;;14.63;12.70;;;36.30;25.10;;;;;;4973104;28;86784;-85
2021/03/02 10:06:00;;;;;;;15.05;13.70;;;36.50;24.70;;;;;;4976776;28;87585;-86
2021/03/02 10:08:33;;;;;;;17.02;15.25;;;36.60;25.00;;;;;;4969859;28;86997;-85
2021/03/02 10:11:10;;;;;;;15.93;14.23;;;36.90;24.60;;;;;;4971302;28;87407;-85
2021/03/02 10:13:38;;;;;;;14.88;13.48;;;36.80;24.60;;;;;;4976995;28;86012;-86
2021/03/02 10:16:29;;;;;;;16.95;15.15;;;37.00;24.90;;;;;;4976957;28;87519;-86
2021/03/02 10:18:56;;;;;;;16.48;14.88;;;37.00;24.60;;;;;;4975557;28;86912;-85
2021/03/02 10:21:24;;;;;;;16.33;14.63;;;37.00;24.90;;;;;;4975191;28;87799;-86
2021/03/02 10:23:53;;;;;;;17.85;16.05;;;37.40;24.90;;;;;;4974432;28;86930;-85
2021/03/02 10:26:21;;;;;;;18.63;16.90;;;37.50;24.80;;;;;;4972007;28;86749;-85
2021/03/02 10:28:47;;;;;;;19.02;17.15;;;37.60;24.80;;;;;;4976415;28;87229;-85
2021/03/02 10:31:15;;;;;;;18.08;16.27;;;37.70;24.70;;;;;;4976531;28;86474;-85
2021/03/02 10:33:40;;;;;;;18.58;16.67;;;37.70;24.70;;;;;;4969116;28;86987;-85
2021/03/02 10:36:20;;;;;;;19.50;16.90;;;37.70;24.70;;;;;;4977199;28;86655;-85
2021/03/02 10:38:46;;;;;;;17.40;15.80;;;37.50;24.50;;;;;;4963970;28;90043;-86
2021/03/02 10:41:12;;;;;;;17.85;16.10;;;37.20;25.00;;;;;;4973388;28;88444;-85
2021/03/02 10:43:37;;;;;;;17.55;15.85;;;37.40;24.90;;;;;;4973145;28;86715;-85
2021/03/02 10:46:05;;;;;;;16.77;15.25;;;37.70;24.80;;;;;;4978368;28;90738;-84
2021/03/02 10:48:30;;;;;;;14.52;13.25;;;37.60;24.60;;;;;;4959964;28;87361;-86
2021/03/02 10:50:56;;;;;;;15.82;14.38;;;37.30;24.20;;;;;;4942000;28;87061;-85
2021/03/02 10:53:22;;;;;;;16.90;15.20;;;36.90;24.20;;;;;;4947757;28;87121;-86
2021/03/02 10:55:49;;;;;;;15.95;14.55;;;37.00;24.20;;;;;;4946466;28;87624;-86
2021/03/02 10:58:15;;;;;;;16.92;15.27;;;37.10;24.40;;;;;;4949521;28;86971;-85
2021/03/02 11:00:41;;;;;;;15.90;14.40;;;36.90;24.30;;;;;;4951759;28;86745;-85
2021/03/02 11:03:07;;;;;;;15.55;14.02;;;36.80;24.30;;;;;;4934975;28;86856;-85
2021/03/02 11:05:34;;;;;;;14.73;13.32;;;36.80;24.20;;;;;;4946180;28;87657;-84
2021/03/02 11:08:00;;;;;;;16.45;14.85;;;36.50;24.20;;;;;;4947559;28;88209;-83
2021/03/02 11:10:26;;;;;;;17.50;15.77;;;36.60;24.00;;;;;;4951584;28;87489;-85
2021/03/02 11:12:52;;;;;;;16.63;15.07;;;37.00;23.90;;;;;;4941679;28;86961;-84
2021/03/02 11:15:17;;;;;;;17.33;15.73;;;37.40;23.80;;;;;;4952578;28;87719;-84
2021/03/02 11:17:43;;;;;;;17.35;15.85;;;37.40;23.80;;;;;;4951510;28;87112;-85
2021/03/02 11:20:09;;;;;;;17.40;15.82;;;37.50;23.80;;;;;;4954967;28;86876;-84
2021/03/02 11:22:35;;;;;;;18.20;16.38;;;37.30;24.10;;;;;;4952290;28;87118;-85
2021/03/02 11:25:01;;;;;;;16.65;15.15;;;37.50;23.90;;;;;;4951123;28;88495;-87
2021/03/02 11:27:26;;;;;;;18.35;16.67;;;37.60;23.80;;;;;;4951405;28;88409;-86
2021/03/02 11:29:52;;;;;;;18.52;16.73;;;37.40;23.90;;;;;;4950623;28;86176;-86
2021/03/02 11:32:18;;;;;;;19.02;17.20;;;37.30;23.90;;;;;;4950959;28;86215;-85
2021/03/02 11:34:44;;;;;;;16.95;15.55;;;37.80;23.80;;;;;;4947860;28;87451;-85
2021/03/02 11:37:10;;;;;;;18.77;17.05;;;37.80;23.80;;;;;;4953874;28;87943;-85
2021/03/02 11:39:36;;;;;;;17.17;15.65;;;37.80;23.80;;;;;;4958694;28;86182;-82
2021/03/02 11:42:01;;;;;;;19.10;17.30;;;37.90;23.80;;;;;;4964559;28;86276;-83
2021/03/02 11:44:29;;;;;;;18.60;16.73;;;38.00;23.80;;;;;;4966054;28;87259;-84
2021/03/02 11:46:55;;;;;;;17.77;16.17;;;38.20;24.20;;;;;;4955415;28;86493;-84
2021/03/02 11:49:21;;;;;;;19.60;17.75;;;38.30;23.70;;;;;;4953101;28;87041;-85
2021/03/02 11:51:48;;;;;;;18.85;17.23;;;38.20;23.90;;;;;;4943612;28;85989;-84
2021/03/02 11:54:14;;;;;;;19.00;17.30;;;38.30;23.70;;;;;;4947633;28;87664;-84
2021/03/02 11:56:39;;;;;;;18.50;16.65;;;38.20;23.50;;;;;;4941751;28;86969;-84
2021/03/02 11:59:07;;;;;;;18.73;17.02;;;38.10;23.60;;;;;;4948806;28;87697;-84
2021/03/02 12:01:33;;;;;;;18.52;16.85;;;37.70;23.50;;;;;;4949609;28;87020;-85
2021/03/02 12:03:59;;;;;;;18.30;16.55;;;37.80;23.70;;;;;;4947265;28;86604;-85
2021/03/02 12:06:26;;;;;;;18.85;17.08;;;37.90;23.70;;;;;;4952495;28;86996;-86
2021/03/02 12:08:51;;;;;;;17.95;16.35;;;37.70;23.70;;;;;;4953033;28;86944;-86
2021/03/02 12:11:18;;;;;;;17.02;15.40;;;37.70;23.30;;;;;;4951628;28;86722;-87
2021/03/02 12:13:44;;;;;;;18.85;17.05;;;37.30;23.10;;;;;;4948812;28;89280;-86
2021/03/02 12:16:10;;;;;;;17.88;16.17;;;37.30;22.70;;;;;;4948667;28;87439;-85
2021/03/02 12:18:35;;;;;;;16.50;14.95;;;37.20;22.50;;;;;;4948477;28;87030;-85
2021/03/02 12:21:01;;;;;;;16.45;14.70;;;37.30;22.70;;;;;;4951156;28;87058;-85
2021/03/02 12:23:27;;;;;;;15.88;14.43;;;37.20;22.70;;;;;;4950701;28;88001;-85
2021/03/02 12:25:53;;;;;;;15.65;14.18;;;37.30;22.50;;;;;;4948738;28;89154;-86
2021/03/02 12:28:18;;;;;;;15.68;14.27;;;36.60;22.60;;;;;;4949828;28;86966;-86
2021/03/02 12:30:44;;;;;;;15.27;13.77;;;36.30;22.70;;;;;;4941801;28;87043;-86
2021/03/02 12:33:10;;;;;;;16.77;15.10;;;36.00;22.80;;;;;;4943950;28;88564;-86
2021/03/02 12:35:35;;;;;;;16.08;14.55;;;36.00;22.90;;;;;;4943048;28;86758;-86
2021/03/02 12:38:02;;;;;;;15.23;13.93;;;36.20;23.20;;;;;;4950729;28;86834;-85
2021/03/02 12:40:27;;;;;;;16.05;14.48;;;36.40;22.80;;;;;;4947117;28;86211;-86
2021/03/02 12:42:53;;;;;;;15.98;14.38;;;36.20;22.80;;;;;;4949606;28;86937;-85
2021/03/02 12:45:19;;;;;;;14.85;13.65;;;36.20;23.20;;;;;;4949132;28;86576;-85
2021/03/02 12:47:44;;;;;;;14.65;13.35;;;36.20;23.10;;;;;;4965604;28;87818;-85
2021/03/02 12:50:10;;;;;;;15.63;14.23;;;36.20;22.90;;;;;;4969613;28;87135;-86
2021/03/02 12:52:37;;;;;;;17.25;15.50;;;36.10;22.80;;;;;;4959901;28;87800;-86
2021/03/02 12:55:04;;;;;;;16.80;15.13;;;35.70;22.90;;;;;;4949775;28;89281;-85
2021/03/02 12:57:30;;;;;;;14.98;13.52;;;35.50;22.90;;;;;;4969076;28;86931;-85
2021/03/02 12:59:55;;;;;;;16.23;14.73;;;35.70;23.00;;;;;;4971156;28;87008;-85
2021/03/02 13:02:21;;;;;;;15.90;14.20;;;35.60;23.40;;;;;;4969781;28;86821;-85
2021/03/02 13:04:47;;;;;;;15.35;14.05;;;35.80;23.20;;;;;;4968120;28;86412;-85
2021/03/02 13:07:18;;;;;;;16.42;15.00;;;36.00;23.10;;;;;;4968965;28;87092;-85
2021/03/02 13:09:45;;;;;;;16.48;14.98;;;36.00;23.20;;;;;;4972159;28;86680;-86
2021/03/02 13:12:11;;;;;;;15.85;14.55;;;35.90;23.10;;;;;;4949353;28;88706;-86
2021/03/02 13:14:39;;;;;;;16.52;15.02;;;35.70;23.20;;;;;;4966079;28;87363;-85
2021/03/02 13:17:05;;;;;;;15.82;14.23;;;35.00;23.40;;;;;;4969716;28;86964;-86
2021/03/02 13:19:32;;;;;;;16.92;15.18;;;34.70;23.60;;;;;;4969229;28;87033;-86
2021/03/02 13:22:03;;;;;;;16.05;14.65;;;34.80;23.60;;;;;;4967512;28;86984;-86
2021/03/02 13:24:29;;;;;;;14.85;13.55;;;34.80;23.60;;;;;;4967656;28;86960;-85
2021/03/02 13:26:55;;;;;;;16.40;14.90;;;34.70;23.70;;;;;;4971173;28;86739;-85
2021/03/02 13:29:31;;;;;;;17.02;15.45;;;34.40;23.80;;;;;;4966635;28;87366;-83
2021/03/02 13:31:59;;;;;;;15.85;14.35;;;34.40;23.80;;;;;;4973826;28;86414;-82
2021/03/02 13:34:28;;;;;;;16.50;15.10;;;34.10;23.90;;;;;;4971866;28;86924;-85
2021/03/02 13:36:54;;;;;;;16.40;14.90;;;34.10;23.90;;;;;;4972362;28;87935;-85
2021/03/02 13:39:22;;;;;;;15.55;14.05;;;34.00;24.00;;;;;;4964485;28;87223;-84
2021/03/02 13:41:50;;;;;;;16.48;15.00;;;33.80;24.00;;;;;;4967454;28;87084;-85
2021/03/02 13:44:21;;;;;;;17.88;16.27;;;33.60;24.30;;;;;;4965974;28;87280;-85
2021/03/02 13:46:48;;;;;;;16.95;15.55;;;33.50;25.00;;;;;;4956106;28;86931;-86
2021/03/02 13:49:14;;;;;;;20.38;18.60;;;33.20;25.30;;;;;;4949325;28;87056;-85
2021/03/02 13:51:42;;;;;;;20.10;18.20;;;33.00;25.80;;;;;;4950252;28;87258;-85
2021/03/02 13:54:09;;;;;;;21.67;19.52;;;33.00;25.70;;;;;;4947100;28;87669;-84
2021/03/02 13:56:35;;;;;;;18.65;16.55;;;32.90;31.30;;;;;;4948939;28;87112;-85
2021/03/02 13:59:03;;;;;;;19.15;17.30;;;32.30;29.30;;;;;;4951362;28;87477;-86
2021/03/02 14:01:36;;;;;;;20.33;18.40;;;31.70;27.40;;;;;;4916965;28;89518;-85
2021/03/02 14:04:07;;;;;;;19.95;18.02;;;31.30;27.10;;;;;;4946824;28;88064;-88
2021/03/02 14:06:40;;;;;;;19.38;17.67;;;30.80;31.10;;;;;;4947258;28;87063;-85
2021/03/02 14:09:09;;;;;;;19.58;17.67;;;30.50;28.60;;;;;;4948048;28;86929;-86
2021/03/02 14:11:36;;;;;;;17.77;16.08;;;30.00;28.90;;;;;;4948828;28;87385;-87
2021/03/02 14:14:04;;;;;;;20.40;18.00;;;29.60;28.90;;;;;;4952208;28;87129;-87
2021/03/02 14:16:32;;;;;;;19.70;17.67;;;29.40;28.30;;;;;;4953574;28;86589;-86
2021/03/02 14:18:58;;;;;;;20.85;17.77;;;29.10;28.50;;;;;;4945573;28;86806;-87
2021/03/02 14:21:25;;;;;;;17.33;15.60;;;28.80;28.30;;;;;;4950403;28;87322;-85
2021/03/02 14:23:51;;;;;;;19.20;17.30;;;28.40;28.30;;;;;;4951277;28;89006;-85
2021/03/02 14:26:17;;;;;;;19.30;17.33;;;28.00;28.40;;;;;;4948643;28;87984;-84
2021/03/02 14:28:43;;;;;;;20.60;18.42;;;27.90;28.50;;;;;;4951674;28;86691;-87
2021/03/02 14:31:11;;;;;;;18.77;16.52;;;27.60;28.50;;;;;;4956305;28;86875;-86
2021/03/02 14:33:39;;;;;;;21.65;16.83;;;27.50;28.50;;;;;;4951623;28;87913;-87
2021/03/02 14:36:05;;;;;;;17.85;16.15;;;27.20;28.40;;;;;;4949774;28;86919;-86
2021/03/02 14:38:31;;;;;;;19.58;17.48;;;27.00;28.50;;;;;;4932239;28;87023;-86
2021/03/02 14:41:02;;;;;;;19.38;17.27;;;26.90;28.50;;;;;;4949222;28;88633;-87
2021/03/02 14:43:32;;;;;;;19.35;17.23;;;26.80;28.60;;;;;;4949419;28;87866;-85
2021/03/02 14:46:01;;;;;;;19.90;16.73;;;26.70;28.40;;;;;;4935329;28;87008;-86
2021/03/02 14:48:45;;;;;;;18.45;16.42;;;26.70;28.50;;;;;;4969702;28;86967;-85
2021/03/02 14:51:12;;;;;;;21.52;18.83;;;26.50;28.60;;;;;;4971411;28;87805;-85
2021/03/02 14:53:38;;;;;;;20.15;17.38;;;26.40;28.70;;;;;;4964599;28;86979;-86
2021/03/02 14:56:12;;;;;;;20.58;18.38;;;26.30;29.20;;;;;;4970881;28;87053;-85
2021/03/02 14:58:45;;;;;;;19.83;17.13;;;26.30;28.90;;;;;;4970375;28;86586;-86
2021/03/02 15:01:11;;;;;;;18.77;16.35;;;26.00;29.20;;;;;;4979840;28;87648;-87
2021/03/02 15:03:37;;;;;;;21.08;18.60;;;25.90;29.50;;;;;;4970395;28;88887;-86
2021/03/02 15:06:04;;;;;;;20.17;18.02;;;25.70;29.60;;;;;;4963050;28;86919;-86
2021/03/02 15:08:34;;;;;;;22.67;17.73;;;25.20;29.80;;;;;;4969410;28;86418;-86
2021/03/02 15:11:02;;;;;;;21.30;17.50;;;25.10;29.80;;;;;;4970928;28;88262;-84
2021/03/02 15:13:28;;;;;;;19.83;17.75;;;24.80;30.10;;;;;;4970956;28;86975;-85
2021/03/02 15:15:55;;;;;;;20.63;17.70;;;24.60;30.20;;;;;;4970227;28;88237;-86
2021/03/02 15:18:21;;;;;;;20.75;18.55;;;24.40;30.50;;;;;;4970981;28;86794;-85
2021/03/02 15:20:47;;;;;;;21.58;15.98;;;24.20;30.40;;;;;;4970566;28;87014;-85
2021/03/02 15:23:15;;;;;;;21.08;17.00;;;24.10;30.80;;;;;;4972279;28;87080;-85
2021/03/02 15:25:44;;;;;;;17.85;15.95;;;23.80;30.90;;;;;;4971515;28;86953;-86
2021/03/02 15:28:14;;;;;;;20.55;16.13;;;23.50;30.60;;;;;;4972218;28;87039;-85
2021/03/02 15:30:41;;;;;;;22.50;16.20;;;23.30;30.50;;;;;;4971934;28;87190;-87
2021/03/02 15:33:10;;;;;;;20.23;16.58;;;23.10;30.80;;;;;;4972319;28;86984;-86
2021/03/02 15:35:37;;;;;;;18.83;16.03;;;22.90;31.70;;;;;;4971575;28;87004;-87
2021/03/02 15:38:06;;;;;;;23.23;17.02;;;22.60;32.00;;;;;;4970142;28;86590;-85
2021/03/02 15:40:32;;;;;;;18.50;15.68;;;22.00;32.40;;;;;;4967791;28;88328;-85
2021/03/02 15:42:59;;;;;;;19.85;16.10;;;21.30;32.90;;;;;;4970985;28;88253;-85
2021/03/02 15:45:25;;;;;;;23.10;17.33;;;20.70;33.80;;;;;;4971288;28;86863;-84
2021/03/02 15:47:54;;;;;;;24.25;17.50;;;20.10;35.00;;;;;;4962322;28;86832;-85
2021/03/02 15:50:22;;;;;;;21.23;16.05;;;19.50;35.40;;;;;;4951809;28;86943;-86
2021/03/02 15:52:47;;;;;;;24.92;16.45;;;19.00;35.90;;;;;;4951951;28;86697;-85
2021/03/02 15:55:14;;;;;;;23.88;17.55;;;18.40;37.10;;;;;;4950524;28;86896;-85
2021/03/02 15:57:40;;;;;;;24.70;17.00;;;17.90;37.70;;;;;;4951037;28;86119;-88
2021/03/02 16:00:11;;;;;;;23.77;17.58;;;17.50;38.20;;;;;;4946517;28;88306;-85
2021/03/02 16:02:39;;;;;;;25.65;16.88;;;17.00;39.60;;;;;;4936545;28;86587;-87
2021/03/02 16:05:07;;;;;;;23.65;16.83;;;16.60;40.90;;;;;;4947873;28;87761;-85
2021/03/02 16:07:57;;;;;;;26.20;17.85;;;16.20;41.10;;;;;;4932014;28;87867;-84
2021/03/02 16:10:27;;;;;;;25.20;17.98;;;15.80;43.40;;;;;;4928111;28;90698;-84
2021/03/02 16:12:55;;;;;;;26.58;19.02;;;15.50;42.70;;;;;;4945028;28;86946;-85
2021/03/02 16:15:33;;;;;;;27.30;18.55;;;15.20;43.40;;;;;;4957239;28;86873;-87
2021/03/02 16:17:59;;;;;;;28.65;18.00;;;14.80;44.60;;;;;;4963099;28;86630;-86
2021/03/02 16:20:28;;;;;;;26.17;17.70;;;14.50;44.30;;;;;;4951964;28;87625;-87
2021/03/02 16:23:10;;;;;;;27.95;17.92;;;14.30;44.80;;;;;;4951497;28;87655;-84